CheckWX is a tool to help pilots better visualize weather data.  It is not intended as a substitute for an official pre-flight weather briefing.

12:30:50 UTC

KASL METAR
Harrison County Airport
Marshall, Texas, USA
Current

16 mins ago

KASL 221215Z AUTO 00000KT 10SM OVC004 07/06 A3006 RMK AO1 T00720063
Observed
Feb-22 @ 12:15 UTC
Visibility
10 SM
Flight Rules
LIFR
Cloud Levels
  • Overcast at 400' AGL
Temperature
C / 45°F
Dewpoint
C / 43°F
Humidity
93%
Altimeter
30.06" Hg
Pressure
1017.92 hPa
Previous

36 mins ago

KASL 221155Z AUTO 01003KT 10SM OVC004 07/06 A3004 RMK AO1 60001 70033 T00720063 10072 20072
Observed
Feb-22 @ 11:55 UTC
Wind
  • 010° at 3 KTS
Visibility
10 SM
Flight Rules
LIFR
Cloud Levels
  • Overcast at 400' AGL
Temperature
C / 45°F
Dewpoint
C / 43°F
Humidity
93%
Altimeter
30.04" Hg
Pressure
1017.32 hPa
Previous

56 mins ago

KASL 221135Z AUTO 10007KT 5SM OVC004 07/06 A3002 RMK AO1 T00720063
Observed
Feb-22 @ 11:35 UTC
Wind
  • 100° at 7 KTS
Visibility
5 SM
Flight Rules
LIFR
Cloud Levels
  • Overcast at 400' AGL
Temperature
C / 45°F
Dewpoint
C / 43°F
Humidity
93%
Altimeter
30.02" Hg
Pressure
1016.62 hPa